Time;durP1;ratioP1;P1;durP2;ratioP2;P2;SDS_P1;SDS_P2;PMS_P1;PMS_P2;Temp;Humidity;BMP_temperature;BMP_pressure;BME280_temperature;BME280_humidity;BME280_pressure;Samples;Min_cycle;Max_cycle;Signal;HPM_P1;HPM_P2
2021/12/19 00:09:38;;;;;;;15.98;7.08;;;;;;;2.15;67.50;101560.52;1676168;84;27547;-64
2021/12/19 00:12:06;;;;;;;11.75;6.25;;;;;;;2.12;67.65;101561.95;1679546;84;25772;-64
2021/12/19 00:14:35;;;;;;;13.15;7.33;;;;;;;2.12;67.78;101556.17;1664423;84;25810;-64
2021/12/19 00:17:03;;;;;;;14.53;6.67;;;;;;;2.20;68.09;101559.86;1620441;85;28279;-64
2021/12/19 00:19:33;;;;;;;16.65;6.45;;;;;;;2.24;68.05;101557.45;1688811;84;25780;-64
2021/12/19 00:22:00;;;;;;;11.20;6.33;;;;;;;2.29;68.22;101555.49;1692668;84;27536;-64
2021/12/19 00:24:29;;;;;;;10.05;6.30;;;;;;;2.39;68.33;101559.95;1692209;84;26057;-65
2021/12/19 00:26:56;;;;;;;11.15;6.12;;;;;;;2.45;67.82;101561.04;1665679;85;25840;-64
2021/12/19 00:29:23;;;;;;;11.80;6.22;;;;;;;2.50;67.90;101560.38;1671669;84;26471;-64
2021/12/19 00:31:50;;;;;;;12.05;5.75;;;;;;;2.55;67.78;101554.02;1667301;84;25782;-65
2021/12/19 00:34:17;;;;;;;10.25;5.15;;;;;;;2.58;67.69;101548.10;1668293;84;27126;-64
2021/12/19 00:36:44;;;;;;;13.62;6.08;;;;;;;2.56;66.77;101549.07;1669585;84;25768;-65
2021/12/19 00:39:12;;;;;;;9.00;5.45;;;;;;;2.49;66.34;101544.51;1662406;85;25825;-65
2021/12/19 00:41:41;;;;;;;14.35;5.78;;;;;;;2.45;66.26;101543.78;1656257;83;26077;-64
2021/12/19 00:44:10;;;;;;;13.72;6.30;;;;;;;2.42;66.32;101534.60;1681001;84;25803;-65
2021/12/19 00:46:51;;;;;;;11.00;6.22;;;;;;;2.41;66.46;101532.87;1664149;83;27516;-65
2021/12/19 00:49:19;;;;;;;10.85;5.87;;;;;;;2.40;66.30;101524.50;1660743;85;25781;-64
2021/12/19 00:51:46;;;;;;;9.20;5.20;;;;;;;2.37;65.86;101514.48;1659898;85;25852;-64
2021/12/19 00:54:15;;;;;;;13.00;6.20;;;;;;;2.35;65.75;101508.76;1659553;85;26690;-65
2021/12/19 00:56:48;;;;;;;13.03;6.33;;;;;;;2.34;65.64;101507.51;1656903;85;25851;-63
2021/12/19 00:59:17;;;;;;;10.45;5.25;;;;;;;2.34;65.38;101496.89;1634643;87;27510;-64
2021/12/19 01:01:46;;;;;;;8.15;5.37;;;;;;;2.33;65.80;101493.35;1635316;85;26354;-64
2021/12/19 01:04:17;;;;;;;8.25;4.67;;;;;;;2.35;65.84;101489.33;1659276;84;25811;-64
2021/12/19 01:06:49;;;;;;;11.55;5.47;;;;;;;2.38;66.01;101483.02;1661617;85;26079;-64
2021/12/19 01:09:17;;;;;;;9.93;5.33;;;;;;;2.35;65.66;101480.87;1655982;85;25943;-64
2021/12/19 01:11:48;;;;;;;7.10;4.45;;;;;;;2.34;65.44;101474.31;1667949;84;27636;-64
2021/12/19 01:14:15;;;;;;;7.72;5.33;;;;;;;2.33;65.77;101477.90;1670436;84;25754;-64
2021/12/19 01:16:46;;;;;;;8.23;4.95;;;;;;;2.29;65.34;101471.86;1659883;86;25492;-64
2021/12/19 01:19:13;;;;;;;10.20;4.90;;;;;;;2.19;65.37;101462.11;1660027;84;26153;-63
2021/12/19 01:21:42;;;;;;;10.50;5.33;;;;;;;2.16;65.71;101452.05;1662213;86;25693;-63
2021/12/19 01:24:09;;;;;;;9.78;5.15;;;;;;;2.17;65.73;101453.78;1658939;85;27547;-64
2021/12/19 01:26:36;;;;;;;10.15;5.03;;;;;;;2.18;66.00;101455.06;1661239;85;25782;-64
2021/12/19 01:29:04;;;;;;;9.10;4.92;;;;;;;2.17;65.81;101451.13;1671343;84;25828;-65
2021/12/19 01:31:31;;;;;;;8.65;5.30;;;;;;;2.19;65.44;101443.97;1670719;84;26092;-64
2021/12/19 01:33:58;;;;;;;11.80;5.87;;;;;;;2.22;65.78;101442.97;1676902;83;25780;-64
2021/12/19 01:36:24;;;;;;;9.90;5.80;;;;;;;2.25;65.88;101440.20;1676933;84;27485;-64
2021/12/19 01:38:51;;;;;;;8.08;4.83;;;;;;;2.27;65.51;101444.98;1661910;84;25749;-65
2021/12/19 01:41:18;;;;;;;12.30;4.20;;;;;;;2.26;65.57;101441.92;1662402;85;25839;-63
2021/12/19 01:43:47;;;;;;;7.83;4.25;;;;;;;2.26;65.63;101436.14;1647306;85;26128;-64
2021/12/19 01:46:15;;;;;;;10.48;4.60;;;;;;;2.24;65.40;101429.17;1649443;85;25838;-64
2021/12/19 01:48:41;;;;;;;9.40;4.85;;;;;;;2.24;65.65;101426.52;1663406;85;27489;-65
2021/12/19 01:51:08;;;;;;;6.83;4.42;;;;;;;2.27;65.07;101425.07;1663833;83;25951;-65
2021/12/19 01:53:36;;;;;;;7.40;4.12;;;;;;;2.28;64.93;101422.34;1668097;84;25840;-64
2021/12/19 01:56:06;;;;;;;5.87;4.00;;;;;;;2.28;64.61;101407.73;1668266;84;26203;-64
2021/12/19 01:58:35;;;;;;;10.65;4.62;;;;;;;2.30;64.35;101399.69;1649260;85;25877;-65
2021/12/19 02:01:02;;;;;;;8.53;4.50;;;;;;;2.28;64.94;101390.95;1678068;84;27490;-64
2021/12/19 02:03:35;;;;;;;9.08;5.12;;;;;;;2.24;65.01;101389.34;1665537;84;25824;-64
2021/12/19 02:06:03;;;;;;;7.80;4.87;;;;;;;2.21;65.17;101382.84;1692222;84;25777;-65
2021/12/19 02:08:32;;;;;;;9.05;4.90;;;;;;;2.20;65.44;101376.68;1662921;85;26067;-65
2021/12/19 02:10:59;;;;;;;10.50;5.12;;;;;;;2.16;65.12;101381.27;1657055;85;25912;-65
2021/12/19 02:13:27;;;;;;;8.55;4.45;;;;;;;2.10;64.66;101370.92;1648626;84;27516;-65
2021/12/19 02:15:54;;;;;;;8.85;4.45;;;;;;;2.04;64.67;101360.55;1653452;85;25772;-66
2021/12/19 02:18:22;;;;;;;8.80;4.58;;;;;;;1.99;64.46;101355.44;1657630;84;25753;-66
2021/12/19 02:20:54;;;;;;;8.38;4.12;;;;;;;1.96;64.59;101356.04;1663121;84;26049;-65
2021/12/19 02:23:25;;;;;;;6.97;3.92;;;;;;;1.94;64.41;101347.28;1659865;85;25683;-65
2021/12/19 02:25:55;;;;;;;6.90;4.12;;;;;;;1.93;63.84;101343.78;1669135;85;28197;-65
2021/12/19 02:28:22;;;;;;;6.00;3.85;;;;;;;1.92;63.58;101341.20;1657758;85;26250;-65
2021/12/19 02:30:51;;;;;;;8.80;3.95;;;;;;;1.91;63.63;101342.13;1652020;85;25802;-65
2021/12/19 02:33:23;;;;;;;7.75;4.30;;;;;;;1.90;63.32;101335.94;1693738;84;26083;-65
2021/12/19 02:35:59;;;;;;;6.33;4.28;;;;;;;1.91;63.12;101338.14;1694818;84;25832;-65
2021/12/19 02:49:05;;;;;;;7.12;4.17;;;;;;;1.96;63.20;101310.93;1642511;86;25853;-65
2021/12/19 02:51:34;;;;;;;6.42;4.05;;;;;;;1.96;63.64;101298.55;1672519;83;28237;-64
2021/12/19 02:54:03;;;;;;;10.00;4.42;;;;;;;2.00;63.54;101298.78;1670513;84;25972;-64
2021/12/19 02:56:32;;;;;;;7.33;3.80;;;;;;;2.03;63.44;101297.34;1676083;84;25832;-65
2021/12/19 02:59:03;;;;;;;9.55;4.30;;;;;;;2.08;63.46;101294.48;1668623;84;26123;-64
2021/12/19 03:01:30;;;;;;;9.18;3.65;;;;;;;2.13;63.34;101296.92;1669749;84;25780;-64
2021/12/19 03:03:57;;;;;;;8.43;3.70;;;;;;;2.17;63.62;101290.53;1654507;85;28471;-64
2021/12/19 03:06:24;;;;;;;6.15;3.55;;;;;;;2.21;63.40;101289.92;1643089;85;25702;-64
2021/12/19 03:08:52;;;;;;;5.55;3.17;;;;;;;2.21;63.62;101291.25;1642578;85;25765;-65
2021/12/19 03:19:38;;;;;;;10.18;4.00;;;;;;;2.24;63.69;101276.05;1641462;86;25741;-64
2021/12/19 03:22:08;;;;;;;6.90;3.55;;;;;;;2.25;63.60;101275.59;1639128;85;25909;-64
2021/12/19 03:24:35;;;;;;;9.33;3.95;;;;;;;2.26;63.53;101268.88;1661527;84;26229;-63
2021/12/19 03:27:03;;;;;;;7.33;3.80;;;;;;;2.26;63.36;101268.88;1624882;87;25849;-65
2021/12/19 03:29:30;;;;;;;6.28;3.58;;;;;;;2.26;63.12;101257.41;1638368;85;27462;-65
2021/12/19 03:31:57;;;;;;;7.65;4.35;;;;;;;2.25;63.38;101254.36;1642719;86;27335;-64
2021/12/19 03:34:24;;;;;;;7.83;3.98;;;;;;;2.27;63.12;101256.00;1669115;84;25771;-63
2021/12/19 03:36:52;;;;;;;6.45;3.77;;;;;;;2.24;63.03;101247.32;1639562;85;26114;-65
2021/12/19 03:39:33;;;;;;;7.87;4.35;;;;;;;2.21;63.22;101247.45;1676012;84;25843;-64
2021/12/19 03:41:56;;;;;;;6.10;3.75;;;;;;;2.19;63.44;101241.78;1651152;85;27632;-64
2021/12/19 03:44:24;;;;;;;11.40;6.87;;;;;;;2.14;63.73;101229.16;1647125;85;27250;-64
2021/12/19 03:46:53;;;;;;;7.25;4.53;;;;;;;2.14;64.08;101225.66;1661036;85;25470;-64
2021/12/19 03:49:20;;;;;;;6.20;3.75;;;;;;;2.17;64.14;101229.03;1661458;84;26316;-64
2021/12/19 03:51:49;;;;;;;5.80;4.10;;;;;;;2.21;63.92;101226.22;1644961;86;25798;-64
2021/12/19 03:54:16;;;;;;;6.92;4.37;;;;;;;2.24;63.87;101230.06;1635491;87;27578;-64
2021/12/19 03:56:43;;;;;;;6.72;3.98;;;;;;;2.25;64.02;101224.67;1641890;85;27337;-63
2021/12/19 03:59:13;;;;;;;12.10;3.85;;;;;;;2.27;63.93;101223.30;1637681;87;25843;-65
2021/12/19 04:01:47;;;;;;;11.93;3.77;;;;;;;2.29;64.00;101225.39;1630950;87;26104;-65
2021/12/19 04:04:12;;;;;;;7.22;4.37;;;;;;;2.26;64.30;101221.09;1631505;87;25962;-64
2021/12/19 04:06:41;;;;;;;8.68;4.28;;;;;;;2.20;64.54;101212.09;1629536;86;27520;-64
2021/12/19 04:09:11;;;;;;;8.20;3.83;;;;;;;2.19;64.63;101211.70;1635813;85;25769;-64
2021/12/19 04:11:37;;;;;;;8.03;4.60;;;;;;;2.17;64.84;101201.16;1636094;87;25526;-65
2021/12/19 04:14:07;;;;;;;5.12;3.47;;;;;;;2.19;64.96;101198.42;1604987;88;44217;-64
2021/12/19 04:16:33;;;;;;;7.95;4.60;;;;;;;2.24;65.00;101185.78;1660948;85;25943;-64
2021/12/19 04:19:03;;;;;;;7.85;4.08;;;;;;;2.26;65.23;101177.28;1660023;85;27482;-64
2021/12/19 04:21:31;;;;;;;5.25;3.35;;;;;;;2.29;65.25;101175.83;1617585;87;25839;-65
2021/12/19 04:23:58;;;;;;;6.67;4.17;;;;;;;2.34;65.36;101171.63;1674400;84;25848;-64
2021/12/19 04:26:25;;;;;;;8.10;3.80;;;;;;;2.33;65.47;101165.91;1645973;85;26106;-64
2021/12/19 04:28:52;;;;;;;5.55;3.33;;;;;;;2.33;65.58;101156.14;1633705;86;25770;-65
2021/12/19 04:31:22;;;;;;;7.12;3.65;;;;;;;2.35;65.78;101162.25;1633160;87;28163;-65
2021/12/19 04:33:52;;;;;;;5.80;3.90;;;;;;;2.37;65.74;101160.87;1658388;86;25902;-65
2021/12/19 04:36:26;;;;;;;7.72;4.30;;;;;;;2.38;65.81;101161.23;1624485;86;25783;-63
2021/12/19 04:44:31;;;;;;;4.80;3.52;;;;;;;2.39;65.51;101136.41;1638966;85;27547;-65
2021/12/19 04:55:12;;;;;;;8.08;4.25;;;;;;;2.29;66.35;101125.83;1667547;84;25888;-64
2021/12/19 04:57:29;;;;;;;6.17;3.87;;;;;;;2.27;66.34;101122.41;1676654;84;27592;-64
2021/12/19 04:59:56;;;;;;;7.75;3.98;;;;;;;2.25;66.49;101113.66;1651442;86;26389;-64
2021/12/19 05:15:53;;;;;;;6.10;4.00;;;;;;;2.32;67.11;101088.08;1659481;85;25779;-63
2021/12/19 05:18:25;;;;;;;6.92;4.00;;;;;;;2.35;67.23;101083.92;1620309;86;26787;-64
2021/12/19 05:20:55;;;;;;;6.72;4.08;;;;;;;2.38;67.15;101080.73;1623598;86;25891;-65
2021/12/19 05:23:33;;;;;;;6.60;3.87;;;;;;;2.33;67.27;101080.47;1654595;85;28370;-65
2021/12/19 05:25:55;;;;;;;8.03;4.33;;;;;;;2.35;67.32;101087.91;1634009;85;25974;-64
2021/12/19 05:28:23;;;;;;;8.80;4.50;;;;;;;2.39;67.46;101085.11;1652290;84;25818;-65
2021/12/19 05:30:50;;;;;;;7.08;4.28;;;;;;;2.34;67.67;101080.02;1660234;85;26070;-65
2021/12/19 05:33:17;;;;;;;5.30;3.70;;;;;;;2.35;67.59;101073.78;1632263;86;26364;-65
2021/12/19 05:44:05;;;;;;;7.12;4.25;;;;;;;2.33;67.76;101078.30;1631792;87;27616;-65
2021/12/19 05:47:00;;;;;;;6.83;4.17;;;;;;;2.39;68.27;101058.07;1645680;84;25823;-64
2021/12/19 05:49:28;;;;;;;6.55;3.70;;;;;;;2.42;68.37;101051.77;1647612;84;27489;-64
2021/12/19 05:51:55;;;;;;;6.67;4.05;;;;;;;2.47;68.53;101052.39;1651696;85;25957;-64
2021/12/19 05:54:22;;;;;;;5.42;3.40;;;;;;;2.52;68.68;101050.35;1654799;85;25792;-64
2021/12/19 05:56:51;;;;;;;7.08;4.17;;;;;;;2.55;68.56;101056.84;1675736;83;25504;-64
2021/12/19 05:59:18;;;;;;;8.93;4.55;;;;;;;2.54;68.56;101045.83;1642691;86;26481;-64
2021/12/19 06:01:46;;;;;;;7.33;4.00;;;;;;;2.52;68.82;101047.70;1674837;84;27492;-63
2021/12/19 06:04:16;;;;;;;12.03;4.95;;;;;;;2.43;69.08;101039.74;1654153;84;25884;-63
2021/12/19 06:06:45;;;;;;;7.53;4.83;;;;;;;2.38;69.10;101043.08;1669273;84;25760;-62
2021/12/19 06:09:13;;;;;;;7.60;4.65;;;;;;;2.37;69.48;101036.08;1639535;86;26230;-63
2021/12/19 06:11:40;;;;;;;8.73;5.17;;;;;;;2.30;70.01;101052.77;1676858;84;26416;-63
2021/12/19 06:14:07;;;;;;;6.35;3.98;;;;;;;2.29;70.64;101032.91;1681718;84;27503;-63
2021/12/19 06:16:34;;;;;;;9.60;4.65;;;;;;;2.30;71.25;101039.95;1652922;84;25800;-62
2021/12/19 06:19:02;;;;;;;7.22;3.67;;;;;;;2.29;71.70;101032.47;1632689;86;25783;-62
2021/12/19 06:21:29;;;;;;;8.75;4.62;;;;;;;2.26;73.15;101025.12;1634210;87;26779;-63
2021/12/19 06:23:56;;;;;;;6.35;3.85;;;;;;;2.23;72.50;101024.81;1632227;86;25545;-64
2021/12/19 06:26:26;;;;;;;6.55;3.80;;;;;;;2.27;73.15;101022.38;1640749;85;27500;-63
2021/12/19 06:28:52;;;;;;;7.65;3.87;;;;;;;2.31;73.46;101021.75;1646198;85;25919;-63
2021/12/19 06:31:19;;;;;;;6.45;3.95;;;;;;;2.33;73.48;101018.56;1620702;87;25814;-63
2021/12/19 06:33:46;;;;;;;7.83;4.67;;;;;;;2.35;74.19;101018.03;1681232;84;25816;-63
2021/12/19 06:36:13;;;;;;;7.58;4.40;;;;;;;2.39;73.89;101012.09;1663057;84;25872;-64
2021/12/19 06:38:40;;;;;;;7.37;4.35;;;;;;;2.45;73.91;101010.44;1653486;85;27457;-64
2021/12/19 06:41:07;;;;;;;7.20;4.30;;;;;;;2.44;73.71;101008.27;1644856;85;25826;-62
2021/12/19 06:43:34;;;;;;;11.40;5.35;;;;;;;2.49;73.74;101005.38;1633816;86;25761;-62
2021/12/19 06:46:01;;;;;;;7.22;4.15;;;;;;;2.52;74.07;101010.52;1641067;86;26099;-64
2021/12/19 06:48:28;;;;;;;8.68;4.40;;;;;;;2.51;74.33;101002.16;1675854;84;25936;-63
2021/12/19 06:50:56;;;;;;;6.37;4.78;;;;;;;2.47;74.18;100989.50;1671775;84;27447;-63
2021/12/19 06:53:23;;;;;;;7.37;4.28;;;;;;;2.43;74.27;100981.77;1656032;85;25808;-63
2021/12/19 06:55:50;;;;;;;7.40;4.67;;;;;;;2.45;74.84;100974.59;1643532;86;25884;-62
2021/12/19 06:58:18;;;;;;;8.65;4.97;;;;;;;2.41;74.82;100972.56;1649663;86;26127;-63
2021/12/19 07:00:45;;;;;;;6.53;4.67;;;;;;;2.38;74.88;100967.41;1658422;84;26127;-63
2021/12/19 07:03:16;;;;;;;9.30;4.10;;;;;;;2.44;74.51;100959.59;1655702;86;27482;-62
2021/12/19 07:05:44;;;;;;;6.95;4.40;;;;;;;2.46;74.57;100956.40;1646535;86;25854;-63
2021/12/19 07:08:11;;;;;;;8.28;4.87;;;;;;;2.48;74.37;100958.03;1664228;84;25779;-63
2021/12/19 07:10:38;;;;;;;7.67;4.33;;;;;;;2.50;74.43;100956.16;1641358;86;28263;-63
2021/12/19 07:13:04;;;;;;;7.17;4.22;;;;;;;2.54;74.46;100944.91;1622395;86;25488;-62
2021/12/19 07:15:31;;;;;;;7.58;4.78;;;;;;;2.53;74.33;100935.22;1677067;83;27501;-63
2021/12/19 07:18:03;;;;;;;7.75;5.15;;;;;;;2.49;74.41;100931.86;1673491;84;25697;-63
2021/12/19 07:20:31;;;;;;;9.48;5.05;;;;;;;2.50;74.27;100926.11;1687566;84;25786;-64
2021/12/19 07:23:00;;;;;;;8.20;5.40;;;;;;;2.45;74.56;100923.69;1683248;83;26239;-63
2021/12/19 07:25:27;;;;;;;6.92;5.08;;;;;;;2.50;74.82;100924.78;1684875;84;25955;-63
2021/12/19 07:27:54;;;;;;;11.30;5.05;;;;;;;2.52;74.69;100928.19;1674167;85;28199;-63
2021/12/19 07:30:25;;;;;;;10.00;4.80;;;;;;;2.51;74.53;100926.46;1676961;84;26694;-63
2021/12/19 07:32:53;;;;;;;12.15;5.47;;;;;;;2.52;74.69;100927.34;1661599;85;25950;-64
2021/12/19 07:35:22;;;;;;;8.75;5.30;;;;;;;2.55;74.95;100917.41;1666018;84;27138;-63
2021/12/19 07:37:50;;;;;;;10.20;4.87;;;;;;;2.59;74.99;100918.98;1657941;86;25836;-63
2021/12/19 07:40:20;;;;;;;11.50;5.08;;;;;;;2.60;74.81;100910.53;1617556;87;27498;-63
2021/12/19 07:42:47;;;;;;;8.20;5.05;;;;;;;2.63;74.72;100902.41;1630311;85;25493;-63
2021/12/19 07:45:16;;;;;;;10.88;5.40;;;;;;;2.69;74.78;100900.74;1674237;85;26770;-63
2021/12/19 07:47:45;;;;;;;10.58;5.30;;;;;;;2.69;74.66;100896.76;1660168;84;26290;-63
2021/12/19 07:50:14;;;;;;;9.10;5.25;;;;;;;2.69;74.89;100891.45;1648713;85;25853;-64
2021/12/19 07:52:42;;;;;;;10.10;5.62;;;;;;;2.69;75.09;100888.79;1639891;86;27483;-63
2021/12/19 07:55:10;;;;;;;11.03;6.10;;;;;;;2.71;75.05;100889.58;1645220;85;25872;-64
2021/12/19 07:57:37;;;;;;;9.03;5.70;;;;;;;2.79;75.10;100878.05;1635449;86;25792;-63
2021/12/19 08:00:10;;;;;;;8.60;5.35;;;;;;;2.88;75.10;100879.34;1621262;86;26099;-62
2021/12/19 08:02:47;;;;;;;8.78;5.37;;;;;;;2.96;75.01;100872.28;1619127;86;25762;-64
2021/12/19 08:05:15;;;;;;;11.75;6.05;;;;;;;3.03;74.85;100875.47;1636075;86;28158;-64
2021/12/19 08:07:46;;;;;;;7.70;5.22;;;;;;;3.14;74.54;100873.05;1663492;86;25749;-64
2021/12/19 08:11:39;;;;;;;8.53;4.97;;;;;;;3.20;74.66;100862.55;1644977;86;25756;-63
2021/12/19 08:12:43;;;;;;;12.18;5.20;;;;;;;3.31;74.42;100861.48;1631447;85;26104;-63
2021/12/19 08:15:12;;;;;;;9.33;4.83;;;;;;;3.44;74.34;100859.84;1633477;86;26439;-64
2021/12/19 08:17:39;;;;;;;9.00;5.00;;;;;;;3.52;73.59;100861.20;1652855;86;28352;-64
2021/12/19 08:20:10;;;;;;;7.62;4.42;;;;;;;3.56;73.37;100857.41;1636297;86;25891;-64
2021/12/19 08:22:37;;;;;;;7.12;4.78;;;;;;;3.58;73.09;100847.54;1630728;87;25776;-64
2021/12/19 08:25:06;;;;;;;8.20;4.85;;;;;;;3.54;73.00;100847.34;1640253;86;26163;-63
2021/12/19 08:27:37;;;;;;;10.18;6.08;;;;;;;3.57;72.96;100845.36;1638555;86;25955;-64
2021/12/19 08:30:09;;;;;;;9.75;4.97;;;;;;;3.54;72.92;100840.70;1653665;86;27533;-64
2021/12/19 08:32:38;;;;;;;9.65;5.22;;;;;;;3.58;72.98;100838.23;1639183;86;25873;-65
2021/12/19 08:35:07;;;;;;;11.00;4.37;;;;;;;3.61;72.93;100818.11;1626739;86;25562;-61
2021/12/19 08:37:35;;;;;;;8.43;4.45;;;;;;;3.62;73.01;100814.95;1628653;87;26867;-64
2021/12/19 08:40:04;;;;;;;10.60;5.53;;;;;;;3.59;73.16;100803.55;1629148;87;25885;-65
2021/12/19 08:42:33;;;;;;;10.32;6.03;;;;;;;3.58;73.48;100800.53;1634115;86;27481;-64
2021/12/19 08:45:00;;;;;;;7.12;4.75;;;;;;;3.64;73.66;100793.96;1633501;87;25877;-64
2021/12/19 08:47:27;;;;;;;9.28;4.87;;;;;;;3.84;73.56;100786.59;1629992;87;25581;-64
2021/12/19 08:49:54;;;;;;;9.63;5.37;;;;;;;4.15;73.34;100772.77;1630202;86;26098;-64
2021/12/19 08:52:21;;;;;;;10.78;4.90;;;;;;;4.56;72.48;100771.12;1630340;86;25870;-64
2021/12/19 08:54:48;;;;;;;6.55;4.37;;;;;;;4.70;71.09;100755.10;1642030;87;27396;-64
2021/12/19 08:57:15;;;;;;;8.10;5.00;;;;;;;4.68;69.85;100748.55;1650179;85;25745;-64
2021/12/19 08:59:43;;;;;;;11.93;4.95;;;;;;;4.62;69.84;100743.59;1643923;86;25561;-64
2021/12/19 09:02:11;;;;;;;7.95;4.55;;;;;;;4.61;70.08;100740.58;1661107;84;26120;-64
2021/12/19 09:04:39;;;;;;;7.03;4.78;;;;;;;4.59;70.14;100730.95;1628872;87;25911;-65
2021/12/19 09:07:05;;;;;;;10.20;4.70;;;;;;;4.58;70.23;100722.11;1634637;86;27478;-66
2021/12/19 09:09:32;;;;;;;9.60;4.67;;;;;;;4.59;70.21;100718.95;1648419;86;25801;-65
2021/12/19 09:12:04;;;;;;;15.08;4.50;;;;;;;4.59;70.07;100705.17;1663813;84;26472;-65
2021/12/19 09:14:31;;;;;;;8.05;4.70;;;;;;;4.64;69.36;100699.55;1681033;83;26192;-64
2021/12/19 09:16:58;;;;;;;10.38;4.97;;;;;;;4.64;69.53;100692.89;1678106;83;25768;-65
2021/12/19 09:19:26;;;;;;;7.90;4.05;;;;;;;4.65;69.10;100694.11;1681935;84;28185;-64
2021/12/19 09:21:53;;;;;;;8.55;3.75;;;;;;;4.66;68.94;100686.98;1681689;83;26140;-64
2021/12/19 09:24:20;;;;;;;6.20;3.87;;;;;;;4.68;68.83;100687.72;1662253;85;25804;-63
2021/12/19 09:26:49;;;;;;;8.18;4.28;;;;;;;4.70;68.70;100680.03;1645422;85;26103;-64
2021/12/19 09:29:16;;;;;;;7.83;4.08;;;;;;;4.74;69.32;100673.14;1679025;84;25759;-64
2021/12/19 09:31:46;;;;;;;6.72;4.05;;;;;;;4.79;69.24;100661.72;1679565;84;28355;-64
2021/12/19 09:34:13;;;;;;;6.08;3.65;;;;;;;4.91;69.92;100663.55;1658423;84;25901;-63
2021/12/19 09:36:40;;;;;;;6.80;4.22;;;;;;;4.95;68.36;100658.41;1637010;86;25842;-64
2021/12/19 09:39:07;;;;;;;8.13;4.60;;;;;;;4.99;67.93;100659.89;1635384;85;26119;-64
2021/12/19 09:41:43;;;;;;;8.58;5.03;;;;;;;5.06;68.47;100651.50;1629158;87;25778;-64
2021/12/19 09:44:09;;;;;;;8.48;4.65;;;;;;;5.19;68.07;100652.36;1627348;86;28192;-64
2021/12/19 09:46:38;;;;;;;10.35;5.65;;;;;;;5.26;67.32;100656.31;1630084;86;25803;-63
2021/12/19 09:49:11;;;;;;;8.68;5.40;;;;;;;5.36;66.16;100643.22;1638775;86;25816;-64
2021/12/19 09:51:39;;;;;;;10.13;4.95;;;;;;;5.37;66.19;100640.05;1664558;86;26081;-64
2021/12/19 09:54:10;;;;;;;9.73;5.05;;;;;;;5.44;66.20;100633.33;1644291;84;26184;-63
2021/12/19 09:56:39;;;;;;;8.98;4.87;;;;;;;5.49;66.54;100632.55;1676970;83;27470;-65
2021/12/19 09:59:13;;;;;;;9.45;5.53;;;;;;;5.49;65.39;100636.05;1676531;84;25971;-64
2021/12/19 10:01:41;;;;;;;10.30;4.58;;;;;;;5.55;64.09;100634.78;1658537;85;25849;-65
2021/12/19 10:04:33;;;;;;;7.58;4.40;;;;;;;5.57;64.48;100621.32;1678507;84;26093;-65
2021/12/19 10:07:19;;;;;;;7.78;4.58;;;;;;;5.64;64.88;100614.62;1669233;83;26416;-64
2021/12/19 10:10:10;;;;;;;5.90;3.92;;;;;;;5.85;64.69;100604.23;1668943;83;27482;-64
2021/12/19 10:12:48;;;;;;;9.55;4.40;;;;;;;6.08;64.17;100598.59;1678234;84;25485;-63
2021/12/19 10:15:17;;;;;;;13.68;5.25;;;;;;;6.28;63.68;100589.58;1647077;85;25918;-65
2021/12/19 10:17:46;;;;;;;8.33;4.12;;;;;;;6.39;62.94;100592.32;1665843;84;26746;-65
2021/12/19 10:20:17;;;;;;;9.00;4.22;;;;;;;6.37;62.77;100583.56;1650178;86;25868;-64
2021/12/19 10:22:47;;;;;;;13.50;7.95;;;;;;;6.42;63.58;100574.73;1656014;86;27383;-65
2021/12/19 10:25:27;;;;;;;8.38;5.08;;;;;;;6.53;63.89;100569.92;1657387;86;25693;-65
2021/12/19 10:27:58;;;;;;;10.72;4.92;;;;;;;6.70;63.67;100566.45;1632077;86;25699;-65
2021/12/19 10:30:33;;;;;;;7.58;4.70;;;;;;;6.89;63.07;100563.25;1680751;83;26073;-65
2021/12/19 10:33:07;;;;;;;8.05;5.08;;;;;;;7.20;63.05;100562.20;1673302;83;27337;-65
2021/12/19 10:35:47;;;;;;;6.55;4.55;;;;;;;7.70;62.83;100560.52;1677024;84;27572;-65
2021/12/19 10:38:39;;;;;;;9.90;5.55;;;;;;;7.86;62.64;100561.95;1669341;84;25768;-66
2021/12/19 10:41:33;;;;;;;10.68;4.70;;;;;;;7.88;62.02;100559.55;1614075;87;25860;-65
2021/12/19 10:46:38;;;;;;;10.70;6.15;;;;;;;7.73;61.05;100559.42;1570478;87;25972;-65
2021/12/19 10:49:29;;;;;;;13.50;5.83;;;;;;;7.68;61.52;100559.78;1629186;87;28397;-65
2021/12/19 10:52:01;;;;;;;10.38;6.00;;;;;;;7.63;61.64;100565.50;1615142;86;25943;-65
2021/12/19 10:54:26;;;;;;;10.63;6.03;;;;;;;7.58;60.75;100562.83;1662324;83;25757;-64
2021/12/19 10:57:08;;;;;;;12.73;6.40;;;;;;;7.49;61.63;100555.89;1683450;84;25818;-64
2021/12/19 10:59:36;;;;;;;9.08;5.65;;;;;;;7.50;61.39;100545.55;1652731;84;25869;-65
2021/12/19 11:02:03;;;;;;;10.95;6.00;;;;;;;7.51;61.99;100534.38;1657186;84;28158;-65
2021/12/19 11:04:35;;;;;;;7.85;5.25;;;;;;;7.52;61.88;100534.24;1641165;85;25919;-66
2021/12/19 11:07:02;;;;;;;12.30;5.42;;;;;;;7.54;61.39;100537.30;1658218;84;25757;-64
2021/12/19 11:09:37;;;;;;;8.35;5.37;;;;;;;7.47;60.31;100535.58;1617972;87;26107;-65
2021/12/19 11:12:08;;;;;;;12.13;5.00;;;;;;;7.40;60.57;100536.55;1644092;85;30627;-66
2021/12/19 11:14:43;;;;;;;8.98;4.70;;;;;;;7.34;61.33;100535.23;1690923;84;28808;-65
2021/12/19 11:17:24;;;;;;;5.62;3.83;;;;;;;7.33;60.22;100538.87;1673006;84;25808;-65
2021/12/19 11:19:55;;;;;;;7.20;3.98;;;;;;;7.23;61.30;100534.34;1692689;84;25914;-65
2021/12/19 11:22:27;;;;;;;15.55;4.87;;;;;;;7.19;61.65;100538.63;1660381;84;26563;-65
2021/12/19 11:25:00;;;;;;;8.85;4.75;;;;;;;7.18;61.23;100535.58;1656118;85;26489;-64
2021/12/19 11:27:29;;;;;;;6.05;3.92;;;;;;;7.14;61.46;100529.25;1660326;84;27585;-65
2021/12/19 11:29:57;;;;;;;5.37;4.22;;;;;;;7.13;61.28;100524.37;1655024;85;26677;-65
2021/12/19 11:32:44;;;;;;;6.60;3.60;;;;;;;7.15;61.11;100519.75;1660054;85;25511;-65
2021/12/19 11:35:18;;;;;;;5.97;3.65;;;;;;;7.21;60.23;100519.77;1656716;84;26107;-64
2021/12/19 11:37:52;;;;;;;7.12;4.30;;;;;;;7.22;60.50;100513.45;1653655;85;25809;-64
2021/12/19 11:40:21;;;;;;;7.47;4.35;;;;;;;7.21;60.47;100515.75;1643505;85;27495;-64
2021/12/19 11:42:49;;;;;;;5.97;3.92;;;;;;;7.16;60.29;100516.11;1646769;86;25900;-64
2021/12/19 11:45:33;;;;;;;10.50;4.45;;;;;;;7.11;58.24;100518.78;1661272;85;25836;-64
2021/12/19 11:48:08;;;;;;;6.22;3.77;;;;;;;7.03;59.10;100514.88;1666819;84;25813;-64
2021/12/19 11:50:34;;;;;;;7.75;3.72;;;;;;;7.00;59.16;100511.10;1665364;85;26459;-65
2021/12/19 11:53:18;;;;;;;8.00;4.78;;;;;;;7.03;59.66;100508.20;1619869;86;27485;-65
2021/12/19 11:55:48;;;;;;;6.05;3.27;;;;;;;7.02;59.72;100506.98;1639637;85;25773;-64
2021/12/19 11:58:52;;;;;;;6.05;4.15;;;;;;;7.07;59.51;100502.63;1641827;86;25787;-64
2021/12/19 12:01:28;;;;;;;12.37;4.58;;;;;;;7.10;59.75;100507.70;1665363;83;26055;-64
2021/12/19 12:04:13;;;;;;;9.00;5.05;;;;;;;7.13;60.40;100500.29;1676520;85;25785;-64
2021/12/19 12:06:43;;;;;;;6.42;4.33;;;;;;;7.22;59.89;100495.22;1642876;85;28122;-64
2021/12/19 12:09:28;;;;;;;8.20;4.58;;;;;;;7.26;60.27;100503.34;1625563;86;25909;-63
2021/12/19 12:12:10;;;;;;;8.53;5.10;;;;;;;7.24;59.96;100499.94;1653951;85;25761;-64
2021/12/19 12:14:58;;;;;;;8.35;4.97;;;;;;;7.19;60.32;100498.96;1653850;85;27299;-64
2021/12/19 12:17:37;;;;;;;7.80;4.97;;;;;;;7.18;60.42;100497.25;1652535;85;25883;-64
2021/12/19 12:20:20;;;;;;;21.12;12.10;;;;;;;7.05;60.03;100498.70;1662819;84;28248;-65
2021/12/19 12:22:55;;;;;;;9.65;4.47;;;;;;;6.93;60.51;100500.52;1654869;85;25882;-63
2021/12/19 12:25:32;;;;;;;9.28;5.47;;;;;;;6.85;60.78;100494.92;1643980;84;26306;-65
2021/12/19 12:28:05;;;;;;;7.80;5.00;;;;;;;6.87;61.29;100491.64;1636647;84;26112;-65
2021/12/19 12:30:40;;;;;;;8.33;5.50;;;;;;;6.95;61.46;100488.39;1677017;83;25818;-64
2021/12/19 12:33:11;;;;;;;9.40;5.53;;;;;;;7.02;61.27;100489.61;1640247;85;28245;-64
2021/12/19 12:35:42;;;;;;;11.22;5.20;;;;;;;7.16;61.30;100497.39;1672443;84;25816;-63
2021/12/19 12:38:11;;;;;;;7.22;5.08;;;;;;;7.24;60.73;100490.57;1648781;85;25733;-64
2021/12/19 12:43:22;;;;;;;11.45;5.62;;;;;;;7.12;60.38;100490.59;1651616;85;25659;-64
2021/12/19 12:45:57;;;;;;;9.70;5.17;;;;;;;6.97;60.97;100486.42;1647585;84;28175;-65
2021/12/19 12:48:51;;;;;;;10.23;5.97;;;;;;;6.83;61.17;100478.14;1684709;84;25482;-64
2021/12/19 12:51:39;;;;;;;11.15;6.47;;;;;;;6.71;61.74;100474.13;1622281;86;25856;-64
2021/12/19 12:54:21;;;;;;;10.00;5.62;;;;;;;6.65;62.17;100484.44;1654129;85;26130;-63